METAR Data
IDs: Format: Raw Decoded Include TAF

Data at: 0928 UTC 07 Dec 2022

METAR for:KHCR (Heber City Muni, UT, US)
Text:KHCR 070915Z AUTO 09005KT 10SM OVC004 M08/M10 A3017 RMK AO2
Temperature: -8.0°C ( 18°F)
Dewpoint:-10.0°C ( 14°F) [RH = 85%]
Pressure (altimeter):30.17 inches Hg (1021.8 mb)
Winds:from the E (90 degrees) at 6 MPH (5 knots; 2.6 m/s)
Visibility:10 or more sm (16+ km)
Ceiling:400 feet AGL
Clouds: overcast cloud deck at 400 feet AGL
QC Flag:automated observation with no human augmentation